Latest Weather Observations for Mount Boyce

IDN60901

Issued at 2:01 am EST Thursday 1 September 2016 (issued every 10 minutes, with the page automatically refreshed every 10 minutes)

About weather observations | Map of Sydney area stations | Latest observations for Sydney area | Other Formats
Station Details ID: 063292 Name: MOUNT BOYCE AWS Lat: -33.62 Lon: 150.27 Height: 1080.0 m
Data from the previous 72 hours. | See also: Recent months at Mount Boyce
Date/Time
EST
Temp
°C
App
Temp
°C
Dew
Point
°C
Rel
Hum
%
Delta-T
°C
Wind Press
QNH
hPa
Press
MSL
hPa
Rain since
9am
mm
Dir  Spd
km/h
Gust
km/h
Spd
kts
Gust
kts
01/02:00am 7.4 1.3 6.5 94 0.4 WSW 28 39 15 21 - - 0.4
01/01:30am 7.4 1.7 6.5 94 0.4 W 26 39 14 21 - - 0.4
01/01:00am 7.8 1.7 6.6 92 0.6 WSW 28 46 15 25 - - 0.4
01/12:47am 7.9 1.4 6.5 91 0.7 W 30 48 16 26 - - 0.4
01/12:30am 7.9 1.0 6.5 91 0.7 W 32 44 17 24 - - 0.4
01/12:13am 8.0 1.9 6.6 91 0.7 WSW 28 46 15 25 - - 0.4
01/12:00am 8.1 1.7 6.9 92 0.6 WSW 30 44 16 24 - - 0.4
 
Date/Time
EST
Temp
°C
App
Temp
°C
Dew
Point
°C
Rel
Hum
%
Delta-T
°C
Wind Press
QNH
hPa
Press
MSL
hPa
Rain since
9am
mm
Dir  Spd
km/h
Gust
km/h
Spd
kts
Gust
kts
31/11:46pm 8.2 1.2 7.0 92 0.6 W 33 52 18 28 - - 0.4
31/11:30pm 8.0 2.8 7.1 94 0.4 WSW 24 33 13 18 - - 0.4
31/11:00pm 8.2 3.9 7.0 92 0.6 WSW 19 28 10 15 - - 0.4
31/10:30pm 8.6 3.8 7.4 92 0.6 W 22 32 12 17 - - 0.4
31/10:25pm 8.6 3.8 7.4 92 0.6 W 22 32 12 17 - - 0.4
31/10:00pm 8.8 5.0 7.7 93 0.6 W 17 24 9 13 - - 0.4
31/09:30pm 9.1 5.0 7.7 91 0.7 WSW 19 32 10 17 - - 0.4
31/09:00pm 9.3 5.0 7.7 90 0.8 W 20 35 11 19 - - 0.4
31/08:30pm 9.1 4.9 7.5 90 0.8 WSW 19 28 10 15 - - 0.4
31/08:00pm 8.9 5.5 7.5 91 0.7 WSW 15 24 8 13 - - 0.4
31/07:35pm 9.1 4.8 7.2 88 1.0 W 19 28 10 15 - - 0.4
31/07:30pm 9.1 4.7 7.4 89 0.9 W 20 32 11 17 - - 0.4
31/07:00pm 9.1 4.8 7.1 87 1.0 WSW 19 28 10 15 - - 0.4
31/06:39pm 9.7 4.9 7.3 85 1.2 WSW 22 39 12 21 - - 0.4
31/06:30pm 10.0 4.1 7.3 83 1.4 W 28 41 15 22 - - 0.4
31/06:00pm 10.7 6.1 8.3 85 1.2 W 22 39 12 21 - - 0.4
31/05:30pm 10.7 5.8 8.3 85 1.2 W 24 39 13 21 - - 0.4
31/05:05pm 11.5 5.6 8.9 84 1.4 W 30 48 16 26 - - 0.4
31/05:00pm 11.2 5.6 8.8 85 1.3 W 28 44 15 24 - - 0.4
31/04:32pm 10.9 5.0 9.0 88 1.0 W 30 48 16 26 - - 0.4
31/04:30pm 10.9 5.4 9.0 88 1.0 W 28 43 15 23 - - 0.4
31/04:25pm 11.1 5.5 8.7 85 1.3 W 28 46 15 25 - - 0.4
31/04:06pm 11.8 6.1 8.3 79 1.8 W 28 50 15 27 - - 0.4
31/04:00pm 12.0 6.3 8.3 78 1.9 W 28 43 15 23 - - 0.4
31/03:45pm 12.1 6.4 8.4 78 1.9 W 28 48 15 26 - - 0.4
31/03:30pm 12.0 7.4 8.3 78 1.9 WNW 22 39 12 21 - - 0.4
31/03:00pm 12.5 8.3 8.2 75 2.3 WNW 20 35 11 19 - - 0.4
31/02:30pm 12.4 6.2 7.9 74 2.3 W 30 59 16 32 - - 0.4
31/02:20pm 12.6 6.7 7.3 70 2.7 W 28 46 15 25 - - 0.4
31/02:00pm 12.9 8.4 8.4 74 2.4 WNW 22 43 12 23 - - 0.4
31/01:39pm 12.4 6.7 8.5 77 2.1 W 28 48 15 26 - - 0.4
31/01:30pm 12.2 6.9 8.5 78 1.9 W 26 43 14 23 - - 0.4
31/01:00pm 12.5 6.5 8.8 78 2.0 W 30 57 16 31 - - 0.4
31/12:30pm 13.7 7.1 8.7 72 2.7 W 33 56 18 30 - - 0.4
31/12:22pm 13.8 8.2 8.8 72 2.7 W 28 56 15 30 - - 0.4
31/12:05pm 13.6 9.1 10.2 80 1.9 WNW 24 39 13 21 - - 0.4
31/12:00pm 13.3 9.0 10.7 84 1.4 WNW 24 43 13 23 - - 0.4
31/11:31am 11.3 6.1 10.4 94 0.5 WNW 28 46 15 25 - - 0.4
31/11:30am 11.3 5.8 10.4 94 0.5 WNW 30 46 16 25 - - 0.4
31/11:03am 10.9 5.6 9.7 92 0.6 WNW 28 50 15 27 - - 0.0
31/11:00am 11.0 6.1 9.8 92 0.6 WNW 26 44 14 24 - - 0.0
31/10:30am 11.4 6.3 9.1 86 1.2 WNW 26 44 14 24 - - 0.0
31/10:22am 11.8 5.9 9.0 83 1.5 WNW 30 52 16 28 - - 0.0
31/10:07am 12.5 6.9 8.8 78 2.0 WNW 28 48 15 26 - - 0.0
31/10:00am 12.5 7.2 8.6 77 2.1 WNW 26 44 14 24 - - 0.0
31/09:30am 12.0 6.8 8.7 80 1.7 WNW 26 43 14 23 - - 0.0
31/09:00am 12.6 7.4 8.9 78 2.0 NW 26 48 14 26 - - 0.0
31/08:30am 12.4 8.3 8.7 78 2.0 NW 20 43 11 23 - - 0.0
31/08:00am 11.8 8.2 8.3 79 1.8 NW 17 33 9 18 - - 0.0
31/07:30am 11.7 7.5 8.2 79 1.8 NW 20 44 11 24 - - 0.0
31/07:00am 11.1 6.8 8.0 81 1.6 NW 20 37 11 20 - - 0.0
31/06:30am 11.1 5.7 7.8 80 1.7 WNW 26 44 14 24 - - 0.0
31/06:00am 11.3 5.5 7.8 79 1.8 WNW 28 52 15 28 - - 0.0
31/05:57am 11.3 5.5 7.8 79 1.8 WNW 28 52 15 28 - - 0.0
31/05:30am 11.4 5.9 7.7 78 1.9 WNW 26 44 14 24 - - 0.0
31/05:00am 11.5 5.7 8.0 79 1.8 WNW 28 46 15 25 - - 0.0
31/04:38am 11.5 5.7 8.0 79 1.8 WNW 28 52 15 28 - - 0.0
31/04:30am 11.4 6.0 7.9 79 1.8 WNW 26 43 14 23 - - 0.0
31/04:00am 11.3 6.6 7.8 79 1.8 NW 22 37 12 20 - - 0.0
31/03:30am 11.2 6.5 7.9 80 1.7 WNW 22 50 12 27 - - 0.0
31/03:00am 11.1 7.8 8.1 82 1.6 WNW 15 24 8 13 - - 0.0
31/02:30am 10.7 7.8 8.3 85 1.2 WNW 13 20 7 11 - - 0.0
31/02:00am 10.9 7.7 8.3 84 1.4 WNW 15 26 8 14 - - 0.0
31/01:30am 10.9 8.0 8.1 83 1.4 WNW 13 22 7 12 - - 0.0
31/01:00am 11.1 8.2 8.0 81 1.6 WNW 13 20 7 11 - - 0.0
31/12:30am 10.8 9.2 7.9 82 1.5 N 6 13 3 7 - - 0.0
31/12:00am 10.9 9.1 7.8 81 1.6 N 7 17 4 9 - - 0.0
 
Date/Time
EST
Temp
°C
App
Temp
°C
Dew
Point
°C
Rel
Hum
%
Delta-T
°C
Wind Press
QNH
hPa
Press
MSL
hPa
Rain since
9am
mm
Dir  Spd
km/h
Gust
km/h
Spd
kts
Gust
kts
30/11:30pm 10.9 9.0 7.6 80 1.7 N 7 13 4 7 - - 0.0
30/11:00pm 11.3 9.1 7.8 79 1.8 NNE 9 19 5 10 - - 0.0
30/10:30pm 11.1 8.8 7.6 79 1.8 NE 9 13 5 7 - - 0.0
30/10:00pm 11.4 9.2 7.7 78 1.9 NNE 9 17 5 9 - - 0.0
30/09:30pm 11.5 8.9 7.8 78 1.9 NNE 11 17 6 9 - - 0.0
30/09:00pm 11.1 9.3 7.8 80 1.7 NE 7 13 4 7 - - 0.0
30/08:30pm 11.5 9.6 7.6 77 2.0 NE 7 13 4 7 - - 0.0
30/08:00pm 11.5 9.5 7.0 74 2.3 NE 7 13 4 7 - - 0.0
30/07:30pm 11.7 9.8 6.8 72 2.5 NE 6 11 3 6 - - 0.0
30/07:00pm 12.5 10.1 7.0 69 2.8 N 9 13 5 7 - - 0.0
30/06:30pm 12.5 10.7 7.0 69 2.8 NE 6 9 3 5 - - 0.0
30/06:00pm 12.7 10.6 6.5 66 3.1 NNE 7 13 4 7 - - 0.0
30/05:30pm 13.2 10.6 6.3 63 3.5 NNW 9 17 5 9 - - 0.0
30/05:00pm 13.9 12.0 6.7 62 3.7 NNE 6 13 3 7 - - 0.0
30/04:30pm 14.3 11.8 6.4 59 4.0 N 9 19 5 10 - - 0.0
30/04:00pm 15.0 12.4 6.3 56 4.5 NW 9 13 5 7 - - 0.0
30/03:30pm 15.3 11.4 5.5 52 5.0 NW 15 24 8 13 - - 0.0
30/03:00pm 17.6 14.8 6.8 49 5.7 WNW 11 22 6 12 - - 0.0
30/02:30pm 16.8 13.1 6.3 50 5.4 WNW 15 24 8 13 - - 0.0
30/02:00pm 16.5 13.1 5.8 49 5.5 WNW 13 22 7 12 - - 0.0
30/01:30pm 15.6 12.6 6.1 53 4.9 W 11 17 6 9 - - 0.0
30/01:00pm 14.9 11.8 5.7 54 4.7 W 11 17 6 9 - - 0.0
30/12:30pm 13.6 10.0 5.0 56 4.3 WNW 13 20 7 11 - - 0.0
30/12:00pm 13.0 9.1 5.4 60 3.8 W 15 20 8 11 - - 0.0
30/11:30am 13.2 10.0 4.9 57 4.1 WNW 11 20 6 11 - - 0.0
30/11:00am 12.6 9.6 4.3 57 4.0 W 9 17 5 9 - - 0.0
30/10:30am 13.8 10.3 3.6 50 4.9 N 11 20 6 11 - - 0.0
30/10:00am 12.5 9.4 3.5 54 4.3 NNW 9 20 5 11 - - 0.0
30/09:30am 11.4 8.7 3.9 60 3.6 N 7 13 4 7 - - 0.0
30/09:00am 10.3 7.0 4.5 67 2.8 ENE 11 15 6 8 - - 0.0
30/08:30am 10.2 6.8 4.1 66 2.9 NE 11 17 6 9 - - 0.0
30/08:00am 9.0 5.5 3.4 68 2.6 NE 11 19 6 10 - - 0.0
30/07:30am 8.0 4.7 4.4 78 1.7 ENE 11 15 6 8 - - 0.0
30/07:00am 6.8 3.3 3.6 80 1.5 ENE 11 17 6 9 - - 0.0
30/06:30am 5.5 1.6 3.5 87 0.9 ENE 13 19 7 10 - - 0.0
30/06:00am 5.4 1.5 3.4 87 0.9 ENE 13 17 7 9 - - 0.0
30/05:30am 5.8 1.9 3.3 84 1.1 ENE 13 19 7 10 - - 0.0
30/05:00am 6.5 3.5 4.0 84 1.1 NE 9 17 5 9 - - 0.0
30/04:30am 5.7 2.2 3.5 86 1.0 ENE 11 17 6 9 - - 0.0
30/04:00am 5.6 2.1 3.4 86 1.0 NE 11 17 6 9 - - 0.0
30/03:30am 5.1 1.5 2.8 85 1.0 ENE 11 15 6 8 - - 0.0
30/03:22am 5.2 1.5 2.6 83 1.1 NE 11 17 6 9 - - 0.0
30/03:00am 5.5 1.9 2.7 82 1.2 NE 11 17 6 9 - - 0.0
30/02:49am 5.5 1.8 2.5 81 1.3 ENE 11 17 6 9 - - 0.0
30/02:39am 5.6 1.9 2.3 79 1.4 ENE 11 15 6 8 - - 0.0
30/02:30am 6.0 2.7 2.3 77 1.6 NE 9 15 5 8 - - 0.0
30/02:09am 6.1 2.4 2.6 78 1.5 NE 11 17 6 9 - - 0.0
30/02:00am 6.0 2.7 2.6 79 1.5 NE 9 15 5 8 - - 0.0
30/01:59am 6.0 2.8 2.8 80 1.4 NE 9 13 5 7 - - 0.0
30/01:40am 6.3 2.8 3.5 82 1.3 NE 11 17 6 9 - - 0.0
30/01:30am 5.9 2.4 3.6 85 1.0 NE 11 17 6 9 - - 0.0
30/01:26am 6.0 2.5 3.7 85 1.0 NE 11 17 6 9 - - 0.0
30/01:09am 5.8 2.7 3.6 86 1.0 ENE 9 13 5 7 - - 0.0
30/01:05am 5.8 2.7 3.6 86 1.0 ENE 9 13 5 7 - - 0.0
30/01:00am 5.9 2.8 3.6 85 1.0 ENE 9 13 5 7 - - 0.0
30/12:41am 6.3 2.9 3.8 84 1.1 NE 11 19 6 10 - - 0.0
30/12:30am 6.4 3.0 3.9 84 1.1 NE 11 17 6 9 - - 0.0
30/12:00am 5.8 2.9 4.4 91 0.6 ENE 9 15 5 8 - - 0.0
 
Date/Time
EST
Temp
°C
App
Temp
°C
Dew
Point
°C
Rel
Hum
%
Delta-T
°C
Wind Press
QNH
hPa
Press
MSL
hPa
Rain since
9am
mm
Dir  Spd
km/h
Gust
km/h
Spd
kts
Gust
kts
29/11:48pm 5.8 3.2 4.4 91 0.6 NE 7 11 4 6 - - 0.0
29/11:36pm 5.8 2.9 4.4 91 0.6 ENE 9 13 5 7 - - 0.0
29/11:33pm 5.8 2.9 4.6 92 0.6 ENE 9 13 5 7 - - 0.0
29/11:30pm 5.8 2.5 4.4 91 0.6 ENE 11 15 6 8 - - 0.0
29/11:12pm 5.7 2.8 4.5 92 0.6 ENE 9 17 5 9 - - 0.0
29/11:00pm 5.6 2.6 4.2 91 0.6 ENE 9 11 5 6 - - 0.0
29/10:33pm 5.5 3.0 4.0 90 0.7 ENE 6 11 3 6 - - 0.0
29/10:30pm 5.4 2.4 3.9 90 0.7 ENE 9 13 5 7 - - 0.0
29/10:18pm 5.5 2.1 4.0 90 0.7 ENE 11 15 6 8 - - 0.0
29/10:17pm 5.4 2.0 3.9 90 0.7 ENE 11 15 6 8 - - 0.0
29/10:00pm 5.3 1.8 3.6 89 0.8 ENE 11 17 6 9 - - 0.0
29/09:59pm 5.3 1.8 3.6 89 0.8 ENE 11 17 6 9 - - 0.0
29/09:33pm 5.7 2.6 3.7 87 0.9 ENE 9 13 5 7 - - 0.0
29/09:30pm 5.8 2.7 3.8 87 0.9 ENE 9 13 5 7 - - 0.0
29/09:00pm 5.9 2.5 3.9 87 0.9 ENE 11 15 6 8 - - 0.0
29/08:46pm 5.9 2.4 3.7 86 1.0 ENE 11 19 6 10 - - 0.0
29/08:30pm 5.9 2.5 3.9 87 0.9 ENE 11 15 6 8 - - 0.0
29/08:00pm 5.8 2.3 3.6 86 1.0 ENE 11 13 6 7 - - 0.0
29/07:30pm 6.2 3.3 4.4 88 0.8 ENE 9 13 5 7 - - 0.0
29/07:00pm 6.2 3.3 4.4 88 0.8 ENE 9 13 5 7 - - 0.0
29/06:30pm 6.8 3.8 4.3 84 1.2 ENE 9 13 5 7 - - 0.0
29/06:00pm 7.5 4.1 4.1 79 1.6 ENE 11 13 6 7 - - 0.0
29/05:30pm 9.1 6.2 4.5 73 2.2 ENE 9 13 5 7 - - 0.0
29/05:00pm 10.3 7.4 4.5 67 2.8 ENE 9 15 5 8 - - 0.0
29/04:30pm 11.3 8.9 4.1 61 3.4 ENE 6 9 3 5 - - 0.0
29/04:00pm 12.6 10.2 4.1 56 4.1 ENE 6 13 3 7 - - 0.0
29/03:30pm 12.8 10.2 4.0 55 4.2 E 7 13 4 7 - - 0.0
29/03:00pm 12.7 9.8 2.8 51 4.6 ENE 7 13 4 7 - - 0.0
29/02:30pm 13.3 10.0 2.5 48 5.1 ENE 9 17 5 9 - - 0.0
29/02:00pm 12.4 10.4 4.6 59 3.8 W 4 11 2 6 - - 0.0
29/01:30pm 12.1 9.3 2.0 50 4.6 NNE 6 13 3 7 - - 0.0
29/01:00pm 12.8 10.3 3.5 53 4.4 NNE 6 9 3 5 - - 0.0
29/12:30pm 11.2 8.7 1.7 52 4.3 NNE 4 9 2 5 - - 0.0
29/12:00pm 9.9 7.3 1.0 54 3.9 NNE 4 11 2 6 - - 0.0
29/11:30am 9.7 6.6 1.4 56 3.7 ENE 7 13 4 7 - - 0.0
29/11:00am 8.5 5.6 1.2 60 3.2 NE 6 11 3 6 - - 0.0
29/10:30am 8.5 5.6 1.4 61 3.1 NE 6 9 3 5 - - 0.0
29/10:00am 8.5 6.0 1.4 61 3.1 NE 4 7 2 4 - - 0.0
29/09:30am 7.9 5.7 1.1 62 2.9 ENE 2 7 1 4 - - 0.0
29/09:00am 7.3 4.4 1.2 65 2.6 ESE 6 9 3 5 - - 0.0
29/08:30am 6.8 5.0 1.5 69 2.3 CALM 0 0 0 0 - - 0.0
29/08:00am 6.1 2.9 0.9 69 2.2 S 7 11 4 6 - - 0.0
29/07:30am 5.3 2.2 0.3 70 2.1 SSW 6 9 3 5 - - 0.0
29/07:00am 5.0 1.7 0.0 70 2.0 S 7 9 4 5 - - 0.0
29/06:30am 4.7 0.9 -0.5 69 2.1 S 9 13 5 7 - - 0.0
29/06:00am 4.8 1.1 0.0 71 2.0 SSE 9 15 5 8 - - 0.0
29/05:30am 3.5 0.4 0.2 79 1.3 SSW 6 7 3 4 - - 0.0
29/05:00am 3.5 0.5 0.7 82 1.1 SW 6 7 3 4 - - 0.0
29/04:30am 3.6 1.4 0.8 82 1.2 W 2 7 1 4 - - 0.0
29/04:00am 3.6 1.0 0.8 82 1.2 W 4 7 2 4 - - 0.0
29/03:30am 3.7 0.5 0.8 81 1.2 W 7 9 4 5 - - 0.0
29/03:00am 4.0 0.8 0.7 79 1.4 WSW 7 9 4 5 - - 0.0
29/02:30am 3.5 0.4 1.1 84 1.0 W 7 9 4 5 - - 0.0

Latest Capital City Observations: Canberra | Sydney | Melbourne | Brisbane | Adelaide | Perth | Hobart | Darwin

Other Formats:

Comma delimited format used in spreadsheet applications
http://www.bom.gov.au/fwo/IDN60901/IDN60901.94743.axf

JavaScript Object Notation format (JSON) in row-major order
http://www.bom.gov.au/fwo/IDN60901/IDN60901.94743.json